Flight Track Log - Related Links

Times and Time Zones

All times are in EDT time to prevent confusion due to time zone crossing. See the ACA291 flight status page for this flight to view local times or setup timezone preferences in your user account.

Time Position Orientation Groundspeed Altitude Reporting Facility
EDT Latitude Longitude Course Direction KTS MPH feet Rate Location/Type
Sun 11:28:50 PM 49.1667 -123.2167 338° Northwest 150 173 1,100  Level Vancouver Center
Sun 11:29:50 PM 49.1833 -123.2833 291° West 210 242 2,300 1,750 Climbing Vancouver Center
Sun 11:30:50 PM 49.2167 -123.3667 302° West 240 276 4,600 2,500 Climbing Vancouver Center
Sun 11:31:00 PM 49.4778 -123.4622 333° Northwest  Level FlightAware Approximate
Sun 11:31:50 PM 49.2833 -123.3667 360° North 270 311 7,300  Level Vancouver Center
Sun 11:32:00 PM 49.5772 -123.5440 338° Northwest  Level FlightAware Approximate
Sun 11:32:50 PM 49.3667 -123.3333 15° North 290 334 10,100  Level Vancouver Center
Sun 11:33:50 PM 49.4667 -123.3167 North 320 368 11,600 1,950 Climbing Vancouver Center
Sun 11:34:50 PM 49.5500 -123.2833 15° North 350 403 14,000 2,300 Climbing Vancouver Center
Sun 11:35:50 PM 49.6500 -123.2500 12° North 360 414 16,200 1,900 Climbing Vancouver Center
Sun 11:36:50 PM 49.7500 -123.2500 360° North 370 426 17,800 1,800 Climbing Vancouver Center
Sun 11:37:50 PM 49.8500 -123.3000 342° North 370 426 19,800 1,900 Climbing Vancouver Center
Sun 11:38:50 PM 49.9500 -123.3500 342° North 380 437 21,600 1,700 Climbing Vancouver Center
Sun 11:39:50 PM 50.0500 -123.4333 332° Northwest 390 449 23,200 1,550 Climbing Vancouver Center
Sun 11:40:50 PM 50.1500 -123.5167 332° Northwest 400 460 24,700 1,400 Climbing Vancouver Center
Sun 11:41:50 PM 50.2500 -123.5833 337° Northwest 400 460 26,000 1,300 Climbing Vancouver Center
Sun 11:42:50 PM 50.3500 -123.6667 332° Northwest 410 472 27,300 1,800 Climbing Vancouver Center
Sun 11:43:50 PM 50.4500 -123.7500 332° Northwest 400 460 29,600 1,350 Climbing Vancouver Center
Sun 11:44:50 PM 50.5500 -123.8167 337° Northwest 390 449 30,000 200 Climbing Vancouver Center
Sun 11:45:50 PM 50.6500 -123.9000 332° Northwest 380 437 30,000 350 Level Vancouver Center
Sun 11:46:50 PM 50.7333 -123.9500 339° North 390 449 30,700 1,050 Climbing Vancouver Center
Sun 11:47:50 PM 50.8333 -124.0333 332° Northwest 390 449 32,100 1,350 Climbing Vancouver Center
Sun 11:48:50 PM 50.9333 -124.1167 332° Northwest 370 426 33,400 950 Climbing Vancouver Center
Sun 11:49:50 PM 51.0167 -124.1667 339° North 360 414 34,000 300 Climbing Vancouver Center
Sun 11:50:50 PM 51.1167 -124.2500 332° Northwest 370 426 34,000  Level Vancouver Center
Sun 11:51:50 PM 51.2000 -124.3333 328° Northwest 370 426 34,000  Level Vancouver Center
Sun 11:52:50 PM 51.3000 -124.4167 332° Northwest 380 437 34,000  Level Vancouver Center
Sun 11:53:50 PM 51.3833 -124.4667 339° North 380 437 34,000  Level Vancouver Center
Sun 11:54:50 PM 51.4833 -124.5500 333° Northwest 370 426 34,000  Level Vancouver Center
Sun 11:55:50 PM 51.5833 -124.6333 333° Northwest 380 437 34,000  Level Vancouver Center
Sun 11:56:50 PM 51.6833 -124.7167 333° Northwest 380 437 34,000  Level Vancouver Center
Sun 11:57:50 PM 51.7667 -124.7667 340° North 370 426 34,000  Level Vancouver Center
Sun 11:58:50 PM 51.8667 -124.8500 333° Northwest 380 437 34,000  Level Vancouver Center
Sun 11:59:50 PM 51.9500 -124.9333 328° Northwest 390 449 34,000  Level Vancouver Center
Mon 12:00:50 AM 52.0500 -125.0167 333° Northwest 390 449 34,000  Level Vancouver Center
Mon 12:01:50 AM 52.1500 -125.1000 333° Northwest 390 449 34,000  Level Vancouver Center
Mon 12:02:50 AM 52.2500 -125.1833 333° Northwest 390 449 34,000  Level Vancouver Center
Mon 12:03:50 AM 52.3500 -125.2500 338° Northwest 390 449 34,000  Level Vancouver Center
Mon 12:04:50 AM 52.4500 -125.3333 333° Northwest 390 449 34,000  Level Vancouver Center
Mon 12:05:50 AM 52.5500 -125.4167 333° Northwest 400 460 34,000  Level Vancouver Center
Mon 12:06:50 AM 52.6500 -125.5000 333° Northwest 400 460 34,000  Level Vancouver Center
Mon 12:07:50 AM 52.7500 -125.5833 333° Northwest 400 460 34,000  Level Vancouver Center
Mon 12:08:50 AM 52.8500 -125.6833 329° Northwest 400 460 34,000  Level Vancouver Center
Mon 12:09:50 AM 52.9500 -125.7667 333° Northwest 400 460 34,000  Level Vancouver Center
Mon 12:10:50 AM 53.0500 -125.8500 333° Northwest 400 460 34,000  Level Vancouver Center
Mon 12:11:50 AM 53.1500 -125.9333 333° Northwest 400 460 34,000  Level Vancouver Center
Mon 12:12:50 AM 53.2333 -126.0333 324° Northwest 400 460 34,000  Level Vancouver Center
Mon 12:13:50 AM 53.3167 -126.1167 329° Northwest 400 460 34,000  Level Vancouver Center
Mon 12:14:50 AM 53.4333 -126.2000 337° Northwest 400 460 34,000  Level Vancouver Center
Mon 12:15:50 AM 53.5167 -126.2667 335° Northwest 400 460 34,000  Level Vancouver Center
Mon 12:16:50 AM 53.6333 -126.3667 333° Northwest 400 460 34,000  Level Vancouver Center
Mon 12:17:50 AM 53.7333 -126.4500 334° Northwest 400 460 34,000  Level Vancouver Center
Mon 12:18:50 AM 53.8333 -126.5333 334° Northwest 400 460 34,000  Level Vancouver Center
Mon 12:19:50 AM 53.9167 -126.6333 325° Northwest 400 460 34,000  Level Vancouver Center
Mon 12:20:50 AM 54.0167 -126.7167 334° Northwest 400 460 34,000  Level Vancouver Center
Mon 12:21:50 AM 54.1167 -126.8167 330° Northwest 400 460 34,000  Level Vancouver Center
Mon 12:22:50 AM 54.2000 -126.9000 330° Northwest 400 460 34,000  Level Vancouver Center
Mon 12:23:50 AM 54.3000 -127.0000 330° Northwest 390 449 34,000  Level Vancouver Center
Mon 12:24:50 AM 54.4000 -127.1000 330° Northwest 390 449 34,000  Level Vancouver Center
Mon 12:25:50 AM 54.5000 -127.1500 344° North 390 449 34,000  Level Vancouver Center
Mon 12:26:50 AM 54.6000 -127.2500 330° Northwest 390 449 34,000  Level Vancouver Center
Mon 12:27:50 AM 54.6833 -127.3500 325° Northwest 390 449 34,000  Level Vancouver Center
Mon 12:29:50 AM 54.8833 -127.5333 332° Northwest 400 460 34,000  Level Vancouver Center
Mon 12:30:50 AM 54.9833 -127.6333 330° Northwest 390 449 34,000  Level Vancouver Center
Mon 12:31:50 AM 55.0833 -127.7333 330° Northwest 400 460 34,000  Level Vancouver Center
Mon 12:32:50 AM 55.1667 -127.8000 335° Northwest 410 472 34,000  Level Vancouver Center
Mon 12:33:50 AM 55.2500 -127.9000 331° Northwest 390 449 34,000  Level Vancouver Center
Mon 12:34:00 AM 55.2734 -127.9031 331° Northwest  Level FlightAware Approximate
Mon 12:34:50 AM 55.3667 -128.0000 334° Northwest 390 449 34,000  Level Vancouver Center
Mon 12:35:50 AM 55.4500 -128.0833 330° Northwest 390 449 34,000  Level Vancouver Center
Mon 12:36:50 AM 55.5500 -128.1833 331° Northwest 390 449 34,000  Level Vancouver Center
Mon 12:37:50 AM 55.6500 -128.2833 331° Northwest 390 449 34,000  Level Vancouver Center
Mon 12:38:50 AM 55.7500 -128.3833 331° Northwest 400 460 34,000  Level Vancouver Center
Mon 12:39:50 AM 55.8333 -128.4833 326° Northwest 390 449 34,000  Level Vancouver Center
Mon 12:40:50 AM 55.9333 -128.5833 331° Northwest 390 449 34,000  Level Vancouver Center
Mon 12:41:50 AM 56.0167 -128.6833 326° Northwest 390 449 34,000  Level Vancouver Center
Mon 12:42:50 AM 56.1167 -128.7833 331° Northwest 400 460 34,000  Level Vancouver Center
Mon 12:43:50 AM 56.2167 -128.8667 335° Northwest 430 495 34,000  Level Vancouver Center
Mon 12:44:50 AM 56.3167 -128.9667 331° Northwest 410 472 34,000  Level Vancouver Center
Mon 12:45:50 AM 56.4000 -129.0667 326° Northwest 390 449 34,000  Level Vancouver Center
Mon 12:46:50 AM 56.4833 -129.1667 326° Northwest 400 460 34,000  Level Vancouver Center
Mon 12:47:50 AM 56.6000 -129.2833 331° Northwest 400 460 34,000  Level Vancouver Center
Mon 12:48:50 AM 56.6833 -129.3833 327° Northwest 390 449 34,000  Level Vancouver Center
Mon 12:49:50 AM 56.7667 -129.4833 327° Northwest 390 449 34,000  Level Vancouver Center
Mon 12:50:50 AM 56.8667 -129.5833 331° Northwest 390 449 34,000  Level Vancouver Center
Mon 12:51:50 AM 56.9667 -129.7000 328° Northwest 390 449 34,000  Level Vancouver Center
Mon 12:52:50 AM 57.0333 -129.8333 313° West 390 449 34,000  Level Vancouver Center
Mon 12:53:50 AM 57.1167 -129.9333 327° Northwest 390 449 34,000  Level Vancouver Center
Mon 12:55:00 AM 57.2163 -130.0644 325° Northwest  Level FlightAware Approximate
Mon 01:02:00 AM 57.8109 -130.8660 324° Northwest  Level FlightAware Approximate
Mon 01:03:00 AM 57.8954 -130.9827 324° Northwest  Level FlightAware Approximate
Mon 01:04:00 AM 57.9798 -131.0999 324° Northwest  Level FlightAware Approximate
Mon 01:05:00 AM 58.0642 -131.2177 324° Northwest  Level FlightAware Approximate
Mon 01:06:00 AM 58.1483 -131.3360 323° Northwest  Level FlightAware Approximate
Mon 01:07:00 AM 58.2324 -131.4549 323° Northwest  Level FlightAware Approximate
Mon 01:08:00 AM 58.3164 -131.5744 323° Northwest  Level FlightAware Approximate
Mon 01:09:00 AM 58.4003 -131.6944 323° Northwest  Level FlightAware Approximate
Mon 01:10:00 AM 58.4841 -131.8150 323° Northwest  Level FlightAware Approximate
Mon 01:11:00 AM 58.5677 -131.9362 323° Northwest  Level FlightAware Approximate
Mon 01:12:00 AM 58.6512 -132.0579 323° Northwest  Level FlightAware Approximate
Mon 01:13:00 AM 58.7346 -132.1803 323° Northwest  Level FlightAware Approximate
Mon 01:14:00 AM 58.8179 -132.3032 323° Northwest  Level FlightAware Approximate
Mon 01:15:00 AM 58.9114 -132.3974 333° Northwest  Level FlightAware Approximate
Mon 01:16:00 AM 59.0048 -132.4920 332° Northwest  Level FlightAware Approximate
Mon 01:17:00 AM 59.0981 -132.5872 332° Northwest  Level FlightAware Approximate
Mon 01:18:00 AM 59.1914 -132.6830 332° Northwest  Level FlightAware Approximate
Mon 01:19:00 AM 59.2846 -132.7792 332° Northwest  Level FlightAware Approximate
Mon 01:20:00 AM 59.3777 -132.8760 332° Northwest  Level FlightAware Approximate
Mon 01:21:00 AM 59.4696 -132.9852 327° Northwest  Level FlightAware Approximate
Mon 01:22:00 AM 59.5575 -133.0997 327° Northwest  Level FlightAware Approximate
Mon 01:23:00 AM 59.6463 -133.2119 328° Northwest  Level FlightAware Approximate
Mon 01:24:00 AM 59.7351 -133.3245 326° Northwest  Level FlightAware Approximate
Mon 01:25:00 AM 59.8233 -133.4390 327° Northwest  Level FlightAware Approximate
Mon 01:26:00 AM 59.9119 -133.5528 327° Northwest  Level FlightAware Approximate
Mon 01:27:00 AM 60.0003 -133.6671 327° Northwest  Level FlightAware Approximate
Mon 01:28:00 AM 60.0882 -133.7838 327° Northwest  Level FlightAware Approximate
Mon 01:29:00 AM 60.1759 -133.9010 326° Northwest  Level FlightAware Approximate
Mon 01:30:00 AM 60.2632 -134.0197 326° Northwest  Level FlightAware Approximate
Mon 01:31:00 AM 60.3504 -134.1394 326° Northwest  Level FlightAware Approximate
Mon 01:32:00 AM 60.4374 -134.2598 326° Northwest  Level FlightAware Approximate
Mon 01:33:00 AM 60.5243 -134.3808 326° Northwest  Level FlightAware Approximate
Mon 01:34:00 AM 60.6121 -134.4993 327° Northwest  Level FlightAware Approximate
Mon 01:35:00 AM 60.7003 -134.6171 324° Northwest  Level FlightAware Approximate
Mon 01:36:00 AM 60.7854 -134.7443 324° Northwest  Level FlightAware Approximate
Mon 01:37:00 AM 60.8706 -134.8715 329° Northwest  Level FlightAware Approximate
Mon 01:38:00 AM 60.9018 -134.9605 189° South  Level FlightAware Approximate
Mon 01:39:00 AM 60.8000 -135.0111 198° South  Level FlightAware Approximate
Mon 01:40:00 AM 60.7095 -135.0673 194° South  Level Estimated
Mon 01:41:00 AM 60.7095 -135.0673 194° South  Level Estimated
Mon 01:42:00 AM 60.7095 -135.0673 194° South  Level Estimated
Mon 01:43:00 AM 60.7095 -135.0673 194° South  Level Estimated
Mon 01:44:00 AM 60.7095 -135.0673 194° South  Level Estimated
Mon 01:45:00 AM 60.7095 -135.0673 194° South  Level Estimated
Mon 01:46:00 AM 60.7095 -135.0673 194° South  Level Estimated
Mon 01:47:00 AM 60.7095 -135.0673 194° South  Level Estimated

Login

Don't have an account? Register now (free) for customized features, flight alerts, and more!